Bright Ocean — HOGQ — position and weather

sailwx.info

Track history (hours):
 
Tides and Currents Weather Stations Pressure Air Temp Water Temp Dewpoint Dewpoint Depression Visibility Wind Speed Wind Dir Waves Ship Positions

Bright Ocean

Last reported at 2016-Aug-23 22:30 UTC. Time now 2016-Aug-27 04:40 UTC.
Position N 46°19' W 128°54'.

Length 178 m; draft 10.8 m.

Type: Cargo ship. MMSI: 373816000.

Date/timePositionNaut miles runAvg speedWind from/ knotsBaromVisibWave heightAir tempDewpointWater temp
2016-Aug-23 22:30N 46°19' W 128°54'4911.9
2016-Aug-23 18:23N 46°17' W 127°43'8311.8
2016-Aug-23 11:21N 46°14' W 125°43'911.6
2016-Aug-23 10:34N 46°14' W 125°30'1211.6
2016-Aug-23 09:33N 46°13' W 125°13'1211.7
2016-Aug-23 08:34N 46°13' W 124°56'1211.9
2016-Aug-23 07:34N 46°12' W 124°39'1212.0
2016-Aug-23 06:34N 46°11' W 124°22'1212.1
2016-Aug-23 05:34N 46°15' W 124°05'1111.4
2016-Aug-23 04:33N 46°12' W 123°49'1010.3
2016-Aug-23 03:33N 46°15' W 123°35'8 7.7
2016-Aug-23 02:33N 46°11' W 123°26'8 8.4
2016-Aug-23 01:33N 46°10' W 123°14'8 8.1
2016-Aug-23 00:33N 46°09' W 123°02'9 9.3
2016-Aug-22 23:33N 46°02' W 122°53'1 0.8
2016-Aug-22 22:31N 46°02' W 122°52'0 0.0
2016-Aug-22 21:31N 46°02' W 122°52'0 0.0
2016-Aug-22 20:31N 46°02' W 122°52'0 0.0
2016-Aug-22 19:31N 46°02' W 122°52'0 0.0
2016-Aug-22 18:31N 46°02' W 122°52'0 0.0
2016-Aug-22 17:31N 46°02' W 122°52'0 0.0
2016-Aug-22 16:31N 46°02' W 122°52'0 0.0
2016-Aug-22 15:31N 46°02' W 122°52'0 0.0
2016-Aug-22 14:31N 46°02' W 122°52'0 0.0
2016-Aug-22 13:31N 46°02' W 122°52'0 0.0
2016-Aug-22 12:31N 46°02' W 122°52'0 0.0
2016-Aug-22 11:31N 46°02' W 122°52'0 0.0
2016-Aug-22 10:31N 46°02' W 122°52'0 0.0
2016-Aug-22 09:31N 46°02' W 122°52'0 0.0
2016-Aug-22 08:31N 46°02' W 122°52'0 0.0
2016-Aug-22 07:31N 46°02' W 122°52'0 0.0
2016-Aug-22 06:31N 46°02' W 122°52'0 0.0
2016-Aug-22 05:31N 46°02' W 122°52'0 0.0
2016-Aug-22 04:31N 46°02' W 122°52'0 0.0
2016-Aug-22 03:31N 46°02' W 122°52'0 0.0
2016-Aug-22 02:31N 46°02' W 122°52'0 0.0
2016-Aug-22 01:31N 46°02' W 122°52'0 0.0
2016-Aug-22 00:31N 46°02' W 122°52'0 0.0
2016-Aug-21 23:16N 46°02' W 122°52'0 0.0
2016-Aug-21 22:31N 46°02' W 122°52'1 1.4
2016-Aug-21 21:33N 46°03' W 122°53'1 1.5
2016-Aug-21 20:32N 46°04' W 122°54'0 0.0
2016-Aug-21 19:29N 46°04' W 122°54'0 0.0
2016-Aug-21 18:29N 46°04' W 122°54'0 0.0
2016-Aug-21 17:32N 46°04' W 122°54'0 0.0
2016-Aug-21 16:31N 46°04' W 122°54'0 0.0
2016-Aug-21 15:29N 46°04' W 122°54'0 0.2
2016-Aug-21 14:32N 46°04' W 122°53'0 0.1
2016-Aug-21 13:32N 46°04' W 122°53'0 0.0
2016-Aug-21 12:29N 46°04' W 122°53'0 0.0
2016-Aug-21 11:29N 46°04' W 122°53'0 0.2
2016-Aug-21 10:32N 46°04' W 122°54'0 0.0
2016-Aug-21 09:32N 46°04' W 122°54'0 0.0
2016-Aug-21 08:32N 46°04' W 122°54'0 0.0
2016-Aug-21 07:32N 46°04' W 122°54'0 0.0
2016-Aug-21 06:29N 46°04' W 122°54'0 0.0
2016-Aug-21 05:32N 46°04' W 122°54'0 0.0
2016-Aug-21 04:29N 46°04' W 122°54'0 0.1
2016-Aug-21 03:28N 46°04' W 122°54'0 0.1
2016-Aug-21 02:32N 46°04' W 122°53'0 0.0
2016-Aug-21 01:26N 46°04' W 122°53'0 0.0
2016-Aug-21 00:29N 46°04' W 122°53'0 0.0
2016-Aug-20 23:32N 46°04' W 122°53'0 0.2
2016-Aug-20 22:32N 46°04' W 122°54'0 0.0
2016-Aug-20 21:32N 46°04' W 122°54'0 0.0
2016-Aug-20 20:32N 46°04' W 122°54'0 0.0
2016-Aug-20 19:32N 46°04' W 122°54'0 0.0
2016-Aug-20 18:32N 46°04' W 122°54'0 0.0
2016-Aug-20 17:32N 46°04' W 122°54'0 0.0
2016-Aug-20 16:32N 46°04' W 122°54'0 0.0
2016-Aug-20 15:29N 46°04' W 122°54'0 0.0
2016-Aug-20 14:31N 46°04' W 122°54'0 0.2
2016-Aug-20 13:32N 46°04' W 122°54'0 0.0
2016-Aug-20 12:31N 46°04' W 122°53'0 0.0
2016-Aug-20 11:32N 46°04' W 122°53'0 0.1
2016-Aug-20 10:32N 46°04' W 122°54'0 0.1
2016-Aug-20 09:29N 46°04' W 122°54'0 0.0
2016-Aug-20 08:31N 46°04' W 122°54'0 0.0
2016-Aug-20 07:32N 46°04' W 122°54'0 0.0
2016-Aug-20 06:32N 46°04' W 122°54'0 0.0
2016-Aug-20 05:31N 46°04' W 122°54'0 0.0
2016-Aug-20 04:32N 46°04' W 122°54'0 0.0
2016-Aug-20 03:31N 46°04' W 122°54'0 0.2
2016-Aug-20 02:31N 46°04' W 122°53'0 0.1
2016-Aug-20 01:29N 46°04' W 122°53'0 0.0
2016-Aug-20 00:32N 46°04' W 122°53'0 0.0
2016-Aug-19 23:32N 46°04' W 122°53'0 0.2
2016-Aug-19 22:32N 46°04' W 122°54'0 0.0
2016-Aug-19 21:32N 46°04' W 122°54'0 0.0
2016-Aug-19 20:32N 46°04' W 122°54'0 0.0
2016-Aug-19 19:32N 46°04' W 122°54'0 0.0
2016-Aug-19 18:29N 46°04' W 122°54'0 0.0
2016-Aug-19 17:32N 46°04' W 122°54'0 0.0
2016-Aug-19 16:32N 46°04' W 122°54'0 0.0
2016-Aug-19 15:29N 46°04' W 122°54'0 0.0
2016-Aug-19 14:32N 46°04' W 122°54'0 0.2
2016-Aug-19 13:32N 46°04' W 122°53'0 0.0
2016-Aug-19 12:29N 46°04' W 122°53'0 0.0
2016-Aug-19 11:31N 46°04' W 122°53'0 0.0
2016-Aug-19 10:32N 46°04' W 122°53'0 0.1
2016-Aug-19 09:32N 46°04' W 122°54'0 0.2
2016-Aug-19 08:32N 46°04' W 122°54'0 0.0
2016-Aug-19 07:29N 46°04' W 122°54'0 0.0
2016-Aug-19 06:34N 46°04' W 122°54'0 0.0
2016-Aug-19 05:32N 46°04' W 122°54'0 0.0
2016-Aug-19 04:29N 46°04' W 122°54'0 0.0
2016-Aug-19 03:29N 46°04' W 122°54'0 0.1
2016-Aug-19 02:32N 46°04' W 122°54'0 0.2
2016-Aug-19 01:32N 46°04' W 122°53'0 0.0
2016-Aug-19 00:32N 46°04' W 122°53'0 0.0
2016-Aug-18 23:32N 46°04' W 122°53'0 0.0
2016-Aug-18 22:32N 46°04' W 122°53'0 0.2
2016-Aug-18 21:32N 46°04' W 122°54'0 0.1
2016-Aug-18 20:32N 46°04' W 122°54'0 0.0
2016-Aug-18 19:32N 46°04' W 122°54'0 0.0
2016-Aug-18 18:28N 46°04' W 122°54'0 0.0
2016-Aug-18 17:23N 46°04' W 122°54'0 0.0
2016-Aug-18 16:32N 46°04' W 122°54'0 0.0
2016-Aug-18 15:32N 46°04' W 122°54'0 0.0
2016-Aug-18 14:32N 46°04' W 122°54'0 0.0
2016-Aug-18 13:32N 46°04' W 122°54'0 0.2
2016-Aug-18 12:29N 46°04' W 122°54'0 0.0
2016-Aug-18 11:32N 46°04' W 122°53'0 0.0
2016-Aug-18 10:29N 46°04' W 122°53'0 0.0
2016-Aug-18 09:32N 46°04' W 122°53'0 0.0
2016-Aug-18 08:32N 46°04' W 122°54'0 0.2
2016-Aug-18 07:29N 46°04' W 122°54'0 0.0
2016-Aug-18 06:32N 46°04' W 122°54'0 0.0
2016-Aug-18 05:32N 46°04' W 122°54'0 0.0
2016-Aug-18 04:32N 46°04' W 122°54'0 0.0
2016-Aug-18 03:32N 46°04' W 122°54'0 0.0
2016-Aug-18 02:32N 46°04' W 122°54'0 0.2
2016-Aug-18 01:32N 46°04' W 122°54'0 0.0
2016-Aug-18 00:32N 46°04' W 122°53'0 0.0
2016-Aug-17 23:32N 46°04' W 122°53'0 0.0
2016-Aug-17 22:32N 46°04' W 122°53'0 0.1
2016-Aug-17 21:32N 46°04' W 122°54'0 0.1
2016-Aug-17 20:32N 46°04' W 122°54'0 0.0
2016-Aug-17 19:32N 46°04' W 122°54'0 0.0
2016-Aug-17 18:32N 46°04' W 122°54'0 0.0
2016-Aug-17 17:32N 46°04' W 122°54'0 0.0
2016-Aug-17 16:32N 46°04' W 122°54'0 0.0
2016-Aug-17 15:32N 46°04' W 122°54'0 0.0
2016-Aug-17 14:32N 46°04' W 122°54'0 0.0
2016-Aug-17 13:32N 46°04' W 122°54'0 0.1
2016-Aug-17 12:32N 46°04' W 122°54'0 0.2
2016-Aug-17 11:32N 46°04' W 122°53'0 0.0
2016-Aug-17 10:32N 46°04' W 122°53'0 0.0
2016-Aug-17 09:32N 46°04' W 122°53'0 0.0
2016-Aug-17 08:29N 46°04' W 122°53'0 0.1
2016-Aug-17 07:26N 46°04' W 122°54'0 0.1
2016-Aug-17 06:29N 46°04' W 122°54'0 0.0
2016-Aug-17 05:29N 46°04' W 122°54'0 0.0
2016-Aug-17 04:26N 46°04' W 122°54'0 0.0
2016-Aug-17 03:32N 46°04' W 122°54'0 0.0
2016-Aug-17 02:32N 46°04' W 122°54'0 0.1
2016-Aug-17 01:32N 46°04' W 122°53'0 0.2
2016-Aug-17 00:32N 46°04' W 122°53'0 0.0
2016-Aug-16 23:32N 46°04' W 122°53'0 0.0
2016-Aug-16 22:32N 46°04' W 122°53'0 0.0
2016-Aug-16 21:32N 46°04' W 122°53'0 0.1
2016-Aug-16 20:32N 46°04' W 122°53'0 0.1
2016-Aug-16 19:32N 46°04' W 122°54'0 0.0
2016-Aug-16 18:32N 46°04' W 122°54'0 0.0
2016-Aug-16 17:32N 46°04' W 122°54'0 0.0
2016-Aug-16 16:32N 46°04' W 122°54'0 0.0
2016-Aug-16 15:31N 46°04' W 122°54'0 0.0
2016-Aug-16 14:32N 46°04' W 122°54'0 0.0
2016-Aug-16 13:26N 46°04' W 122°54'0 0.0
2016-Aug-16 12:32N 46°04' W 122°54'0 0.2
2016-Aug-16 11:31N 46°04' W 122°54'0 0.0
2016-Aug-16 10:32N 46°04' W 122°53'0 0.0
2016-Aug-16 09:32N 46°04' W 122°53'0 0.0
2016-Aug-16 08:32N 46°04' W 122°53'0 0.0
2016-Aug-16 07:32N 46°04' W 122°53'0 0.1
2016-Aug-16 04:32N 46°04' W 122°54'0 0.0
2016-Aug-16 03:32N 46°04' W 122°54'0 0.0
2016-Aug-16 02:31N 46°04' W 122°54'0 0.0
2016-Aug-16 01:29N 46°04' W 122°54'0 0.0
2016-Aug-16 00:32N 46°04' W 122°54'0 0.2
2016-Aug-15 23:32N 46°04' W 122°53'0 0.0
2016-Aug-15 22:32N 46°04' W 122°53'0 0.0
2016-Aug-15 21:32N 46°04' W 122°53'0 0.0
2016-Aug-15 20:32N 46°04' W 122°53'0 0.2
2016-Aug-15 19:32N 46°04' W 122°54'0 0.0
2016-Aug-15 18:31N 46°04' W 122°54'0 0.0
2016-Aug-15 17:29N 46°04' W 122°54'0 0.0
2016-Aug-15 16:32N 46°04' W 122°54'0 0.0
2016-Aug-15 15:26N 46°04' W 122°54'0 0.1
2016-Aug-15 14:29N 46°04' W 122°54'0 0.0
2016-Aug-15 13:28N 46°04' W 122°54'0 0.0
2016-Aug-15 12:29N 46°04' W 122°54'0 0.0
2016-Aug-15 11:32N 46°04' W 122°54'0 0.2
2016-Aug-15 10:32N 46°04' W 122°53'0 0.1
2016-Aug-15 09:32N 46°04' W 122°53'0 0.0
2016-Aug-15 08:32N 46°04' W 122°53'0 0.0
2016-Aug-15 07:28N 46°04' W 122°53'0 0.0
2016-Aug-15 06:32N 46°04' W 122°53'0 0.1
2016-Aug-15 04:32N 46°04' W 122°54'0 0.0
2016-Aug-15 03:29N 46°04' W 122°54'0 0.0
2016-Aug-15 02:26N 46°04' W 122°54'0 0.0
2016-Aug-15 01:32N 46°04' W 122°54'0 0.0
2016-Aug-15 00:31N 46°04' W 122°54'0 0.1
2016-Aug-14 23:31N 46°04' W 122°54'0 0.1
2016-Aug-14 22:20N 46°04' W 122°54'0 0.1
2016-Aug-14 21:31N 46°04' W 122°53'0 0.0
2016-Aug-14 20:32N 46°04' W 122°54'0 0.2
2016-Aug-14 19:32N 46°04' W 122°54'0 0.0
2016-Aug-14 18:32N 46°04' W 122°54'0 0.0
2016-Aug-14 17:32N 46°04' W 122°54'0 0.0
2016-Aug-14 16:29N 46°04' W 122°54'0 0.0
2016-Aug-14 15:32N 46°04' W 122°54'0 0.0
2016-Aug-14 14:32N 46°04' W 122°54'0 0.0
2016-Aug-14 13:29N 46°04' W 122°54'0 0.0
2016-Aug-14 12:32N 46°04' W 122°54'0 0.0
2016-Aug-14 11:32N 46°04' W 122°54'0 0.0
2016-Aug-14 10:32N 46°04' W 122°54'0 0.2
2016-Aug-14 09:32N 46°04' W 122°53'0 0.0
2016-Aug-14 08:32N 46°04' W 122°53'0 0.0
2016-Aug-14 07:32N 46°04' W 122°53'0 0.0
2016-Aug-14 06:32N 46°04' W 122°53'0 0.1
2016-Aug-14 04:32N 46°04' W 122°54'0 0.0
2016-Aug-14 03:32N 46°04' W 122°54'0 0.0
2016-Aug-14 02:32N 46°04' W 122°54'0 0.0
2016-Aug-14 01:29N 46°04' W 122°54'0 0.0
2016-Aug-14 00:26N 46°04' W 122°54'0 0.0
2016-Aug-13 23:32N 46°04' W 122°54'0 0.0
2016-Aug-13 22:32N 46°04' W 122°54'  
Track history (hours):
 
Tides and Currents Weather Stations Pressure Air Temp Water Temp Dewpoint Dewpoint Depression Visibility Wind Speed Wind Dir Waves Ship Positions

Bright Ocean

Last reported at 2016-Aug-23 22:30 UTC. Time now 2016-Aug-27 04:40 UTC.
Position N 46°19' W 128°54'.

Length 178 m; draft 10.8 m.

Type: Cargo ship. MMSI: 373816000.

Date/timePositionNaut miles runAvg speedWind from/ knotsBaromVisibWave heightAir tempDewpointWater temp
2016-Aug-23 22:30N 46°19' W 128°54'4911.9
2016-Aug-23 18:23N 46°17' W 127°43'8311.8
2016-Aug-23 11:21N 46°14' W 125°43'911.6
2016-Aug-23 10:34N 46°14' W 125°30'1211.6
2016-Aug-23 09:33N 46°13' W 125°13'1211.7
2016-Aug-23 08:34N 46°13' W 124°56'1211.9
2016-Aug-23 07:34N 46°12' W 124°39'1212.0
2016-Aug-23 06:34N 46°11' W 124°22'1212.1
2016-Aug-23 05:34N 46°15' W 124°05'1111.4
2016-Aug-23 04:33N 46°12' W 123°49'1010.3
2016-Aug-23 03:33N 46°15' W 123°35'8 7.7
2016-Aug-23 02:33N 46°11' W 123°26'8 8.4
2016-Aug-23 01:33N 46°10' W 123°14'8 8.1
2016-Aug-23 00:33N 46°09' W 123°02'9 9.3
2016-Aug-22 23:33N 46°02' W 122°53'1 0.8
2016-Aug-22 22:31N 46°02' W 122°52'0 0.0
2016-Aug-22 21:31N 46°02' W 122°52'0 0.0
2016-Aug-22 20:31N 46°02' W 122°52'0 0.0
2016-Aug-22 19:31N 46°02' W 122°52'0 0.0
2016-Aug-22 18:31N 46°02' W 122°52'0 0.0
2016-Aug-22 17:31N 46°02' W 122°52'0 0.0
2016-Aug-22 16:31N 46°02' W 122°52'0 0.0
2016-Aug-22 15:31N 46°02' W 122°52'0 0.0
2016-Aug-22 14:31N 46°02' W 122°52'0 0.0
2016-Aug-22 13:31N 46°02' W 122°52'0 0.0
2016-Aug-22 12:31N 46°02' W 122°52'0 0.0
2016-Aug-22 11:31N 46°02' W 122°52'0 0.0
2016-Aug-22 10:31N 46°02' W 122°52'0 0.0
2016-Aug-22 09:31N 46°02' W 122°52'0 0.0
2016-Aug-22 08:31N 46°02' W 122°52'0 0.0
2016-Aug-22 07:31N 46°02' W 122°52'0 0.0
2016-Aug-22 06:31N 46°02' W 122°52'0 0.0
2016-Aug-22 05:31N 46°02' W 122°52'0 0.0
2016-Aug-22 04:31N 46°02' W 122°52'0 0.0
2016-Aug-22 03:31N 46°02' W 122°52'0 0.0
2016-Aug-22 02:31N 46°02' W 122°52'0 0.0
2016-Aug-22 01:31N 46°02' W 122°52'0 0.0
2016-Aug-22 00:31N 46°02' W 122°52'0 0.0
2016-Aug-21 23:16N 46°02' W 122°52'0 0.0
2016-Aug-21 22:31N 46°02' W 122°52'1 1.4
2016-Aug-21 21:33N 46°03' W 122°53'1 1.5
2016-Aug-21 20:32N 46°04' W 122°54'0 0.0
2016-Aug-21 19:29N 46°04' W 122°54'0 0.0
2016-Aug-21 18:29N 46°04' W 122°54'0 0.0
2016-Aug-21 17:32N 46°04' W 122°54'0 0.0
2016-Aug-21 16:31N 46°04' W 122°54'0 0.0
2016-Aug-21 15:29N 46°04' W 122°54'0 0.2
2016-Aug-21 14:32N 46°04' W 122°53'0 0.1
2016-Aug-21 13:32N 46°04' W 122°53'0 0.0
2016-Aug-21 12:29N 46°04' W 122°53'0 0.0
2016-Aug-21 11:29N 46°04' W 122°53'0 0.2
2016-Aug-21 10:32N 46°04' W 122°54'0 0.0
2016-Aug-21 09:32N 46°04' W 122°54'0 0.0
2016-Aug-21 08:32N 46°04' W 122°54'0 0.0
2016-Aug-21 07:32N 46°04' W 122°54'0 0.0
2016-Aug-21 06:29N 46°04' W 122°54'0 0.0
2016-Aug-21 05:32N 46°04' W 122°54'0 0.0
2016-Aug-21 04:29N 46°04' W 122°54'0 0.1
2016-Aug-21 03:28N 46°04' W 122°54'0 0.1
2016-Aug-21 02:32N 46°04' W 122°53'0 0.0
2016-Aug-21 01:26N 46°04' W 122°53'0 0.0
2016-Aug-21 00:29N 46°04' W 122°53'0 0.0
2016-Aug-20 23:32N 46°04' W 122°53'0 0.2
2016-Aug-20 22:32N 46°04' W 122°54'0 0.0
2016-Aug-20 21:32N 46°04' W 122°54'0 0.0
2016-Aug-20 20:32N 46°04' W 122°54'0 0.0
2016-Aug-20 19:32N 46°04' W 122°54'0 0.0
2016-Aug-20 18:32N 46°04' W 122°54'0 0.0
2016-Aug-20 17:32N 46°04' W 122°54'0 0.0
2016-Aug-20 16:32N 46°04' W 122°54'0 0.0
2016-Aug-20 15:29N 46°04' W 122°54'0 0.0
2016-Aug-20 14:31N 46°04' W 122°54'0 0.2
2016-Aug-20 13:32N 46°04' W 122°54'0 0.0
2016-Aug-20 12:31N 46°04' W 122°53'0 0.0
2016-Aug-20 11:32N 46°04' W 122°53'0 0.1
2016-Aug-20 10:32N 46°04' W 122°54'0 0.1
2016-Aug-20 09:29N 46°04' W 122°54'0 0.0
2016-Aug-20 08:31N 46°04' W 122°54'0 0.0
2016-Aug-20 07:32N 46°04' W 122°54'0 0.0
2016-Aug-20 06:32N 46°04' W 122°54'0 0.0
2016-Aug-20 05:31N 46°04' W 122°54'0 0.0
2016-Aug-20 04:32N 46°04' W 122°54'0 0.0
2016-Aug-20 03:31N 46°04' W 122°54'0 0.2
2016-Aug-20 02:31N 46°04' W 122°53'0 0.1
2016-Aug-20 01:29N 46°04' W 122°53'0 0.0
2016-Aug-20 00:32N 46°04' W 122°53'0 0.0
2016-Aug-19 23:32N 46°04' W 122°53'0 0.2
2016-Aug-19 22:32N 46°04' W 122°54'0 0.0
2016-Aug-19 21:32N 46°04' W 122°54'0 0.0
2016-Aug-19 20:32N 46°04' W 122°54'0 0.0
2016-Aug-19 19:32N 46°04' W 122°54'0 0.0
2016-Aug-19 18:29N 46°04' W 122°54'0 0.0
2016-Aug-19 17:32N 46°04' W 122°54'0 0.0
2016-Aug-19 16:32N 46°04' W 122°54'0 0.0
2016-Aug-19 15:29N 46°04' W 122°54'0 0.0
2016-Aug-19 14:32N 46°04' W 122°54'0 0.2
2016-Aug-19 13:32N 46°04' W 122°53'0 0.0
2016-Aug-19 12:29N 46°04' W 122°53'0 0.0
2016-Aug-19 11:31N 46°04' W 122°53'0 0.0
2016-Aug-19 10:32N 46°04' W 122°53'0 0.1
2016-Aug-19 09:32N 46°04' W 122°54'0 0.2
2016-Aug-19 08:32N 46°04' W 122°54'0 0.0
2016-Aug-19 07:29N 46°04' W 122°54'0 0.0
2016-Aug-19 06:34N 46°04' W 122°54'0 0.0
2016-Aug-19 05:32N 46°04' W 122°54'0 0.0
2016-Aug-19 04:29N 46°04' W 122°54'0 0.0
2016-Aug-19 03:29N 46°04' W 122°54'0 0.1
2016-Aug-19 02:32N 46°04' W 122°54'0 0.2
2016-Aug-19 01:32N 46°04' W 122°53'0 0.0
2016-Aug-19 00:32N 46°04' W 122°53'0 0.0
2016-Aug-18 23:32N 46°04' W 122°53'0 0.0
2016-Aug-18 22:32N 46°04' W 122°53'0 0.2
2016-Aug-18 21:32N 46°04' W 122°54'0 0.1
2016-Aug-18 20:32N 46°04' W 122°54'0 0.0
2016-Aug-18 19:32N 46°04' W 122°54'0 0.0
2016-Aug-18 18:28N 46°04' W 122°54'0 0.0
2016-Aug-18 17:23N 46°04' W 122°54'0 0.0
2016-Aug-18 16:32N 46°04' W 122°54'0 0.0
2016-Aug-18 15:32N 46°04' W 122°54'0 0.0
2016-Aug-18 14:32N 46°04' W 122°54'0 0.0
2016-Aug-18 13:32N 46°04' W 122°54'0 0.2
2016-Aug-18 12:29N 46°04' W 122°54'0 0.0
2016-Aug-18 11:32N 46°04' W 122°53'0 0.0
2016-Aug-18 10:29N 46°04' W 122°53'0 0.0
2016-Aug-18 09:32N 46°04' W 122°53'0 0.0
2016-Aug-18 08:32N 46°04' W 122°54'0 0.2
2016-Aug-18 07:29N 46°04' W 122°54'0 0.0
2016-Aug-18 06:32N 46°04' W 122°54'0 0.0
2016-Aug-18 05:32N 46°04' W 122°54'0 0.0
2016-Aug-18 04:32N 46°04' W 122°54'0 0.0
2016-Aug-18 03:32N 46°04' W 122°54'0 0.0
2016-Aug-18 02:32N 46°04' W 122°54'0 0.2
2016-Aug-18 01:32N 46°04' W 122°54'0 0.0
2016-Aug-18 00:32N 46°04' W 122°53'0 0.0
2016-Aug-17 23:32N 46°04' W 122°53'0 0.0
2016-Aug-17 22:32N 46°04' W 122°53'0 0.1
2016-Aug-17 21:32N 46°04' W 122°54'0 0.1
2016-Aug-17 20:32N 46°04' W 122°54'0 0.0
2016-Aug-17 19:32N 46°04' W 122°54'0 0.0
2016-Aug-17 18:32N 46°04' W 122°54'0 0.0
2016-Aug-17 17:32N 46°04' W 122°54'0 0.0
2016-Aug-17 16:32N 46°04' W 122°54'0 0.0
2016-Aug-17 15:32N 46°04' W 122°54'0 0.0
2016-Aug-17 14:32N 46°04' W 122°54'0 0.0
2016-Aug-17 13:32N 46°04' W 122°54'0 0.1
2016-Aug-17 12:32N 46°04' W 122°54'0 0.2
2016-Aug-17 11:32N 46°04' W 122°53'0 0.0
2016-Aug-17 10:32N 46°04' W 122°53'0 0.0
2016-Aug-17 09:32N 46°04' W 122°53'0 0.0
2016-Aug-17 08:29N 46°04' W 122°53'0 0.1
2016-Aug-17 07:26N 46°04' W 122°54'0 0.1
2016-Aug-17 06:29N 46°04' W 122°54'0 0.0
2016-Aug-17 05:29N 46°04' W 122°54'0 0.0
2016-Aug-17 04:26N 46°04' W 122°54'0 0.0
2016-Aug-17 03:32N 46°04' W 122°54'0 0.0
2016-Aug-17 02:32N 46°04' W 122°54'0 0.1
2016-Aug-17 01:32N 46°04' W 122°53'0 0.2
2016-Aug-17 00:32N 46°04' W 122°53'0 0.0
2016-Aug-16 23:32N 46°04' W 122°53'0 0.0
2016-Aug-16 22:32N 46°04' W 122°53'0 0.0
2016-Aug-16 21:32N 46°04' W 122°53'0 0.1
2016-Aug-16 20:32N 46°04' W 122°53'0 0.1
2016-Aug-16 19:32N 46°04' W 122°54'0 0.0
2016-Aug-16 18:32N 46°04' W 122°54'0 0.0
2016-Aug-16 17:32N 46°04' W 122°54'0 0.0
2016-Aug-16 16:32N 46°04' W 122°54'0 0.0
2016-Aug-16 15:31N 46°04' W 122°54'0 0.0
2016-Aug-16 14:32N 46°04' W 122°54'0 0.0
2016-Aug-16 13:26N 46°04' W 122°54'0 0.0
2016-Aug-16 12:32N 46°04' W 122°54'0 0.2
2016-Aug-16 11:31N 46°04' W 122°54'0 0.0
2016-Aug-16 10:32N 46°04' W 122°53'0 0.0
2016-Aug-16 09:32N 46°04' W 122°53'0 0.0
2016-Aug-16 08:32N 46°04' W 122°53'0 0.0
2016-Aug-16 07:32N 46°04' W 122°53'0 0.1
2016-Aug-16 04:32N 46°04' W 122°54'0 0.0
2016-Aug-16 03:32N 46°04' W 122°54'0 0.0
2016-Aug-16 02:31N 46°04' W 122°54'0 0.0
2016-Aug-16 01:29N 46°04' W 122°54'0 0.0
2016-Aug-16 00:32N 46°04' W 122°54'0 0.2
2016-Aug-15 23:32N 46°04' W 122°53'0 0.0
2016-Aug-15 22:32N 46°04' W 122°53'0 0.0
2016-Aug-15 21:32N 46°04' W 122°53'0 0.0
2016-Aug-15 20:32N 46°04' W 122°53'0 0.2
2016-Aug-15 19:32N 46°04' W 122°54'0 0.0
2016-Aug-15 18:31N 46°04' W 122°54'0 0.0
2016-Aug-15 17:29N 46°04' W 122°54'0 0.0
2016-Aug-15 16:32N 46°04' W 122°54'0 0.0
2016-Aug-15 15:26N 46°04' W 122°54'0 0.1
2016-Aug-15 14:29N 46°04' W 122°54'0 0.0
2016-Aug-15 13:28N 46°04' W 122°54'0 0.0
2016-Aug-15 12:29N 46°04' W 122°54'0 0.0
2016-Aug-15 11:32N 46°04' W 122°54'0 0.2
2016-Aug-15 10:32N 46°04' W 122°53'0 0.1
2016-Aug-15 09:32N 46°04' W 122°53'0 0.0
2016-Aug-15 08:32N 46°04' W 122°53'0 0.0
2016-Aug-15 07:28N 46°04' W 122°53'0 0.0
2016-Aug-15 06:32N 46°04' W 122°53'0 0.1
2016-Aug-15 04:32N 46°04' W 122°54'0 0.0
2016-Aug-15 03:29N 46°04' W 122°54'0 0.0
2016-Aug-15 02:26N 46°04' W 122°54'0 0.0
2016-Aug-15 01:32N 46°04' W 122°54'0 0.0
2016-Aug-15 00:31N 46°04' W 122°54'0 0.1
2016-Aug-14 23:31N 46°04' W 122°54'0 0.1
2016-Aug-14 22:20N 46°04' W 122°54'0 0.1
2016-Aug-14 21:31N 46°04' W 122°53'0 0.0
2016-Aug-14 20:32N 46°04' W 122°54'0 0.2
2016-Aug-14 19:32N 46°04' W 122°54'0 0.0
2016-Aug-14 18:32N 46°04' W 122°54'0 0.0
2016-Aug-14 17:32N 46°04' W 122°54'0 0.0
2016-Aug-14 16:29N 46°04' W 122°54'0 0.0
2016-Aug-14 15:32N 46°04' W 122°54'0 0.0
2016-Aug-14 14:32N 46°04' W 122°54'0 0.0
2016-Aug-14 13:29N 46°04' W 122°54'0 0.0
2016-Aug-14 12:32N 46°04' W 122°54'0 0.0
2016-Aug-14 11:32N 46°04' W 122°54'0 0.0
2016-Aug-14 10:32N 46°04' W 122°54'0 0.2
2016-Aug-14 09:32N 46°04' W 122°53'0 0.0
2016-Aug-14 08:32N 46°04' W 122°53'0 0.0
2016-Aug-14 07:32N 46°04' W 122°53'0 0.0
2016-Aug-14 06:32N 46°04' W 122°53'0 0.1
2016-Aug-14 04:32N 46°04' W 122°54'0 0.0
2016-Aug-14 03:32N 46°04' W 122°54'0 0.0
2016-Aug-14 02:32N 46°04' W 122°54'0 0.0
2016-Aug-14 01:29N 46°04' W 122°54'0 0.0
2016-Aug-14 00:26N 46°04' W 122°54'0 0.0
2016-Aug-13 23:32N 46°04' W 122°54'0 0.0
2016-Aug-13 22:32N 46°04' W 122°54'  

Dump ship's entire track history